Adrian, MN (56110)

4:32 PM CST en Noviembre 24, 2014 (GMT -0600)
Luverne | Change Station
CLOSE
Current Station
Aeropuerto
Location: Luverne,
Altura: 1430 ft
Estaciones meteorológicas cercanas
Aviso en curso: Wind Advisory

Alt 1430 ft 43.62 °N, 96.21 °W | Updated 18 minutes ago

Muy nublado
Muy nublado
23 ° F
Sensación térmica 6 ° F
N
28
Viento Variable Viento desde NNO
Gusts 36 mph

Hoy
Alta -- | Baja -- ° F
--% Posibilidad de precipitaciones
Ayer
Alta -- | Baja -- ° F
Precip. -- pul
7:29 AM 4:51 PM
Creciente, 7% visible
Presión 29.81 pul
Visibilidad 10.0 Millas
Nubes Nublado 2400 ft
Vientos helados 6 ° F
Punto de rocío 14 ° F
Humedad 68%
Precipitaciones 0.00 pul
Espesor de la nieve No disponible.
UV 0 de una escala de 12
Polen .10 de una escala de 12
Calidad del aire No disponible.
Flu Activity No disponible.
METAR KLYV 242214Z AUTO 33024G31KT 10SM OVC024 M05/M10 A2981 RMK AO2

More Conditions Fewer Conditions

Presión 29.81 pul
Visibilidad 10.0 Millas
Nubes Nublado 2400 ft
Vientos helados 6 ° F
Punto de rocío 14 ° F
Humedad 68%
Precipitaciones 0.00 pul
Espesor de la nieve No disponible.
UV 0 de una escala de 12
Polen .10 de una escala de 12
Calidad del aire No disponible.
Flu Activity No disponible.
METAR KLYV 242214Z AUTO 33024G31KT 10SM OVC024 M05/M10 A2981 RMK AO2

More Conditions Fewer Conditions

10-Day Weather Forecast

Almanac

Astronomía

Nov. 24, 2014 Salida Puesta
Hora real
Crepúsculo civil
Crepúsculo náutico
Crepúsculo astronómico
Luna
Horas de luz
Horas de luz
Tomorrow will be .
, % of the Moon is Illuminated

Extremos de hoy

Máximos del estado Bajos del estado

Community

WunderPhotos

Upload Photos

1,773,427 ¡fotos cargadas!

WunderBlogs® & News

Nearby

Calidad del aire

  Calidad del aire Índice AQ Contaminante
Not available.

Grosos de nieve

Estación Profundido Altura

Actividad de terremotos

Ciudad Distance Mag. Tiempo y dato
Magnitud mínima muestra es 2,5.

Temperaturas de aguas costeras

Lugar Temperatura

Estaciones meteorológicas cercanas